| time (UTC) | temp F | wind direction | speed MPH | gust MPH | rain 1hr in | rain 24hr in | rain mn in | humidity % | barometer mb |
| 20260906171122 | 67 | 299 | 1.0 | 3.0 | 0.19 | 0.50 | 0.50 | 93 | 1013.5 |
| 20260906170122 | 67 | 334 | 2.0 | 2.0 | 0.24 | 0.47 | 0.47 | 93 | 1013.3 |
| 20260906164122 | 67 | 30 | 0.0 | 2.0 | 0.28 | 0.44 | 0.44 | 94 | 1012.4 |
| 20260906163121 | 67 | 44 | 1.0 | 2.0 | 0.26 | 0.42 | 0.42 | 93 | 1012.4 |
| 20260906162120 | 67 | 259 | 0.0 | 2.0 | 0.22 | 0.37 | 0.37 | 92 | 1012.3 |
| 20260906161121 | 68 | 259 | 2.0 | 2.0 | 0.16 | 0.31 | 0.31 | 92 | 1012.7 |
| 20260906160121 | 68 | 280 | 0.0 | 2.0 | 0.09 | 0.23 | 0.23 | 91 | 1012.8 |
| 20260906154120 | 68 | 278 | 1.0 | 4.0 | 0.02 | 0.16 | 0.16 | 89 | 1012.7 |
| 20260906153120 | 68 | 178 | 1.0 | 3.0 | 0.02 | 0.16 | 0.16 | 89 | 1011.8 |
| 20260906152120 | 68 | 138 | 1.0 | 2.0 | 0.01 | 0.15 | 0.15 | 88 | 1011.8 |
| 20260906151119 | 68 | 184 | 0.0 | 3.0 | 0.01 | 0.15 | 0.15 | 88 | 1011.3 |
| 20260906150119 | 68 | 155 | 1.0 | 4.0 | 0.00 | 0.14 | 0.14 | 88 | 1011.1 |
| 20260906145120 | 67 | 100 | 2.0 | 4.0 | 0.00 | 0.14 | 0.14 | 87 | 1011.1 |
| 20260906144120 | 67 | 140 | 0.0 | 4.0 | 0.00 | 0.14 | 0.14 | 87 | 1011.2 |
| 20260906143119 | 67 | 67 | 0.0 | 3.0 | 0.01 | 0.14 | 0.14 | 85 | 1011.4 |
| 20260906142119 | 67 | 21 | 2.0 | 2.0 | 0.03 | 0.14 | 0.14 | 84 | 1011.1 |
| 20260906141119 | 67 | 151 | 1.0 | 4.0 | 0.04 | 0.14 | 0.14 | 84 | 1011.7 |
| 20260906140119 | 67 | 78 | 1.0 | 6.0 | 0.04 | 0.14 | 0.14 | 83 | 1011.2 |
| 20260906135119 | 67 | 69 | 4.0 | 6.0 | 0.04 | 0.14 | 0.14 | 87 | 1010.6 |
| 20260906133119 | 67 | 41 | 0.0 | 4.0 | 0.06 | 0.13 | 0.13 | 88 | 1010.8 |
| 20260906132118 | 68 | 360 | 3.0 | 4.0 | 0.08 | 0.11 | 0.11 | 84 | 1011.6 |
| 20260906131118 | 68 | 289 | 2.0 | 5.0 | 0.08 | 0.10 | 0.10 | 84 | 1011.6 |
| 20260906130118 | 69 | 301 | 2.0 | 5.0 | 0.09 | 0.10 | 0.10 | 87 | 1010.9 |
| 20260906125118 | 70 | 347 | 0.0 | 2.0 | 0.10 | 0.10 | 0.10 | 89 | 1010.6 |
| 20260906124118 | 70 | 5 | 1.0 | 3.0 | 0.08 | 0.08 | 0.08 | 89 | 1010.6 |
| 20260906122117 | 72 | 232 | 1.0 | 2.0 | 0.03 | 0.03 | 0.03 | 90 | 1010.6 |
| 20260906121117 | 73 | 226 | 0.0 | 2.0 | 0.02 | 0.02 | 0.02 | 92 | 1010.1 |
| 20260906120117 | 73 | 190 | 0.0 | 6.0 | 0.01 | 0.01 | 0.01 | 92 | 1010.0 |
| 20260906115117 | 73 | 173 | 0.0 | 4.0 | 0.00 | 0.00 | 0.00 | 91 | 1009.9 |
| 20260906114117 | 73 | 215 | 2.0 | 2.0 | 0.00 | 0.00 | 0.00 | 91 | 1009.7 |
| 20260906113117 | 73 | 174 | 0.0 | 1.0 | 0.00 | 0.00 | 0.00 | 91 | 1009.5 |
| 20260906112117 | 72 | 174 | 0.0 | 2.0 | 0.00 | 0.00 | 0.00 | 91 | 1009.6 |
| 20260906111117 | 72 | 174 | 0.0 | 2.0 | 0.00 | 0.00 | 0.00 | 90 | 1009.7 |
| 20260906110116 | 72 | 161 | 1.0 | 2.0 | 0.00 | 0.00 | 0.00 | 91 | 1009.7 |
| 20260906105116 | 72 | 140 | 0.0 | 2.0 | 0.00 | 0.00 | 0.00 | 91 | 1009.6 |
| 20260906104116 | 72 | 128 | 1.0 | 2.0 | 0.00 | 0.00 | 0.00 | 90 | 1009.6 |
| 20260906103116 | 72 | 215 | 2.0 | 2.0 | 0.00 | 0.00 | 0.00 | 90 | 1009.6 |
| 20260906102115 | 72 | 187 | 1.0 | 2.0 | 0.00 | 0.00 | 0.00 | 90 | 1009.7 |
| 20260906101115 | 72 | 144 | 0.0 | 1.0 | 0.00 | 0.00 | 0.00 | 88 | 1009.7 |
| 20260906100115 | 72 | 167 | 0.0 | 3.0 | 0.00 | 0.00 | 0.00 | 88 | 1009.6 |
| 20260906095116 | 72 | 167 | 0.0 | 3.0 | 0.00 | 0.00 | 0.00 | 88 | 1009.7 |
| 20260906094115 | 72 | 167 | 0.0 | 3.0 | 0.00 | 0.00 | 0.00 | 89 | 1009.7 |
| 20260906093115 | 72 | 164 | 1.0 | 2.0 | 0.00 | 0.00 | 0.00 | 90 | 1010.0 |
| 20260906092147 | 72 | 228 | 0.0 | 2.0 | 0.00 | 0.00 | 0.00 | 90 | 1009.9 |
| 20260906091145 | 72 | 228 | 0.0 | 1.0 | 0.00 | 0.00 | 0.00 | 90 | 1009.7 |
| 20260906090145 | 72 | 228 | 0.0 | 0.0 | 0.00 | 0.00 | 0.00 | 89 | 1009.7 |
| 20260906085145 | 72 | 228 | 0.0 | 1.0 | 0.00 | 0.00 | 0.00 | 89 | 1009.8 |
| 20260906083145 | 72 | 228 | 0.0 | 2.0 | 0.00 | 0.00 | 0.00 | 89 | 1010.0 |
| 20260906081145 | 72 | 228 | 0.0 | 2.0 | 0.00 | 0.00 | 0.00 | 88 | 1010.0 |
| 20260906080144 | 72 | 228 | 1.0 | 2.0 | 0.00 | 0.00 | 0.00 | 88 | 1010.1 |
| 20260906075115 | 72 | 200 | 0.0 | 2.0 | 0.00 | 0.00 | 0.00 | 87 | 1009.9 |
| 20260906074144 | 72 | 217 | 0.0 | 3.0 | 0.00 | 0.00 | 0.00 | 87 | 1010.1 |
| 20260906073144 | 72 | 222 | 1.0 | 3.0 | 0.00 | 0.00 | 0.00 | 86 | 1010.0 |
| 20260906072114 | 72 | 242 | 1.0 | 5.0 | 0.00 | 0.00 | 0.00 | 86 | 1010.0 |
| 20260906071144 | 72 | 205 | 2.0 | 3.0 | 0.00 | 0.00 | 0.00 | 86 | 1010.0 |
| 20260906063143 | 72 | 216 | 3.0 | 3.0 | 0.00 | 0.00 | 0.00 | 86 | 1010.0 |
| 20260906062143 | 72 | 219 | 1.0 | 3.0 | 0.00 | 0.00 | 0.00 | 86 | 1010.1 |
| 20260906061113 | 72 | 208 | 1.0 | 3.0 | 0.00 | 0.00 | 0.00 | 86 | 1010.1 |
| 20260906060143 | 72 | 253 | 2.0 | 4.0 | 0.00 | 0.00 | 0.00 | 86 | 1010.1 |
| 20260906055143 | 72 | 236 | 1.0 | 3.0 | 0.00 | 0.00 | 0.00 | 87 | 1010.2 |
| 20260906054143 | 72 | 225 | 2.0 | 4.0 | 0.00 | 0.00 | 0.00 | 87 | 1010.3 |
| 20260906051143 | 72 | 236 | 1.0 | 2.0 | 0.00 | 0.00 | 0.00 | 87 | 1010.4 |
| 20260906050143 | 72 | 273 | 1.0 | 3.0 | 0.00 | 0.00 | 0.00 | 87 | 1010.5 |
| 20260906044142 | 72 | 252 | 0.0 | 2.0 | 0.00 | 0.00 | 0.00 | 87 | 1010.5 |
| 20260906043142 | 72 | 266 | 1.0 | 2.0 | 0.00 | 0.00 | 0.00 | 86 | 1010.5 |
| 20260906042141 | 72 | 248 | 0.0 | 2.0 | 0.00 | 0.00 | 0.00 | 86 | 1010.6 |
| 20260906041142 | 72 | 346 | 0.0 | 2.0 | 0.00 | 0.00 | 0.00 | 86 | 1010.6 |
| 20260906040142 | 73 | 311 | 0.0 | 2.0 | 0.00 | 0.00 | 0.00 | 85 | 1010.5 |
| 20260906035142 | 73 | 302 | 1.0 | 4.0 | 0.00 | 0.00 | 0.00 | 85 | 1010.4 |
| 20260906034142 | 73 | 317 | 1.0 | 4.0 | 0.00 | 0.00 | 0.00 | 84 | 1010.5 |
| 20260906033141 | 73 | 340 | 3.0 | 3.0 | 0.00 | 0.00 | 0.00 | 84 | 1010.2 |
| 20260906032141 | 73 | 258 | 1.0 | 5.0 | 0.00 | 0.00 | 0.00 | 84 | 1010.1 |
| 20260906031141 | 73 | 299 | 3.0 | 4.0 | 0.00 | 0.00 | 0.00 | 85 | 1010.0 |
| 20260906025141 | 73 | 306 | 1.0 | 6.0 | 0.00 | 0.00 | 0.00 | 85 | 1010.0 |
| 20260906024141 | 73 | 349 | 2.0 | 6.0 | 0.00 | 0.00 | 0.00 | 85 | 1009.7 |
| 20260906023141 | 73 | 240 | 2.0 | 6.0 | 0.00 | 0.00 | 0.00 | 84 | 1010.0 |
| 20260906022140 | 74 | 346 | 1.0 | 4.0 | 0.00 | 0.00 | 0.00 | 85 | 1009.9 |
| 20260906021141 | 74 | 296 | 1.0 | 4.0 | 0.00 | 0.00 | 0.00 | 85 | 1010.0 |
| 20260906020140 | 74 | 321 | 1.0 | 5.0 | 0.00 | 0.00 | 0.00 | 85 | 1010.0 |
| 20260906015140 | 75 | 300 | 5.0 | 8.0 | 0.00 | 0.00 | 0.00 | 85 | 1010.0 |
| 20260906013140 | 75 | 319 | 1.0 | 8.0 | 0.00 | 0.00 | 0.00 | 83 | 1010.0 |
| 20260906012139 | 75 | 321 | 3.0 | 9.0 | 0.00 | 0.00 | 0.00 | 83 | 1010.0 |
| 20260906011139 | 76 | 340 | 2.0 | 6.0 | 0.00 | 0.00 | 0.00 | 82 | 1010.0 |
| 20260906005139 | 76 | 288 | 3.0 | 9.0 | 0.00 | 0.00 | 0.00 | 82 | 1010.0 |
| 20260906003139 | 76 | 255 | 3.0 | 9.0 | 0.00 | 0.00 | 0.00 | 81 | 1009.9 |
| 20260906002139 | 76 | 246 | 4.0 | 8.0 | 0.00 | 0.00 | 0.00 | 81 | 1010.0 |
| 20260906001138 | 76 | 281 | 2.0 | 9.0 | 0.00 | 0.00 | 0.00 | 80 | 1010.0 |
| 20260905234139 | 78 | 291 | 1.0 | 9.0 | 0.00 | 0.00 | 0.00 | 77 | 1010.1 |
| 20260905232138 | 78 | 302 | 3.0 | 10.0 | 0.00 | 0.00 | 0.00 | 76 | 1010.1 |
| 20260905231138 | 78 | 246 | 2.0 | 9.0 | 0.00 | 0.00 | 0.00 | 75 | 1010.2 |
| 20260905230138 | 77 | 284 | 3.0 | 8.0 | 0.00 | 0.00 | 0.00 | 76 | 1010.2 |
| 20260905224138 | 78 | 311 | 1.0 | 9.0 | 0.00 | 0.00 | 0.00 | 75 | 1010.2 |
| 20260905223138 | 79 | 288 | 3.0 | 8.0 | 0.00 | 0.00 | 0.00 | 73 | 1010.3 |
| 20260905222137 | 78 | 267 | 3.0 | 7.0 | 0.00 | 0.00 | 0.00 | 75 | 1010.4 |
| 20260905221137 | 78 | 290 | 7.0 | 8.0 | 0.00 | 0.00 | 0.00 | 75 | 1010.6 |
| 20260905215137 | 78 | 286 | 6.0 | 9.0 | 0.00 | 0.00 | 0.00 | 76 | 1010.7 |
| 20260905214137 | 78 | 307 | 2.0 | 8.0 | 0.00 | 0.00 | 0.00 | 77 | 1011.0 |
| 20260905213138 | 78 | 286 | 6.0 | 8.0 | 0.00 | 0.00 | 0.00 | 76 | 1011.0 |
| 20260905212136 | 78 | 268 | 3.0 | 8.0 | 0.00 | 0.00 | 0.00 | 77 | 1011.2 |
| 20260905211137 | 78 | 184 | 4.0 | 8.0 | 0.00 | 0.00 | 0.00 | 76 | 1011.2 |
| 20260905205136 | 78 | 303 | 3.0 | 7.0 | 0.00 | 0.00 | 0.00 | 75 | 1011.2 |
| 20260905204136 | 78 | 333 | 2.0 | 8.0 | 0.00 | 0.00 | 0.00 | 76 | 1011.3 |
| 20260905202136 | 78 | 282 | 4.0 | 9.0 | 0.00 | 0.00 | 0.00 | 76 | 1011.6 |
| 20260905201136 | 77 | 252 | 9.0 | 9.0 | 0.00 | 0.00 | 0.00 | 77 | 1011.6 |
| 20260905195136 | 77 | 285 | 4.0 | 8.0 | 0.00 | 0.00 | 0.00 | 78 | 1011.8 |
| 20260905193135 | 76 | 289 | 4.0 | 8.0 | 0.00 | 0.00 | 0.00 | 79 | 1012.0 |
| 20260905192135 | 76 | 223 | 4.0 | 7.0 | 0.00 | 0.00 | 0.00 | 80 | 1012.1 |
| 20260905191135 | 76 | 288 | 5.0 | 8.0 | 0.00 | 0.00 | 0.00 | 79 | 1012.2 |
| 20260905190135 | 76 | 236 | 3.0 | 7.0 | 0.00 | 0.00 | 0.00 | 79 | 1012.2 |
| 20260905185135 | 76 | 249 | 4.0 | 6.0 | 0.00 | 0.00 | 0.00 | 78 | 1012.2 |
| 20260905184135 | 76 | 300 | 5.0 | 6.0 | 0.00 | 0.00 | 0.00 | 78 | 1012.2 |
| 20260905183135 | 76 | 279 | 2.0 | 5.0 | 0.00 | 0.00 | 0.00 | 78 | 1012.4 |
| 20260905182135 | 76 | 271 | 3.0 | 8.0 | 0.00 | 0.00 | 0.00 | 77 | 1012.4 |
| 20260905181134 | 76 | 305 | 4.0 | 7.0 | 0.00 | 0.00 | 0.00 | 77 | 1012.3 |
| 20260905180134 | 76 | 259 | 3.0 | 6.0 | 0.00 | 0.00 | 0.00 | 77 | 1012.4 |
| 20260905175135 | 76 | 261 | 3.0 | 5.0 | 0.00 | 0.00 | 0.00 | 77 | 1012.3 |
| 20260905174134 | 75 | 20 | 2.0 | 5.0 | 0.00 | 0.00 | 0.00 | 77 | 1012.2 |
| 20260905173134 | 75 | 301 | 3.0 | 7.0 | 0.00 | 0.00 | 0.00 | 78 | 1012.2 |
| 20260905172134 | 76 | 263 | 4.0 | 5.0 | 0.00 | 0.00 | 0.00 | 77 | 1012.0 |